Time;durP1;ratioP1;P1;durP2;ratioP2;P2;SDS_P1;SDS_P2;PMS_P1;PMS_P2;Temp;Humidity;BMP_temperature;BMP_pressure;BME280_temperature;BME280_humidity;BME280_pressure;Samples;Min_cycle;Max_cycle;Signal;HPM_P1;HPM_P2
2023/07/28 00:02:11;;;;;;;0.35;0.35;;;;;;;15.89;100.00;99513.16;5060909;28;20552;-93
2023/07/28 00:04:37;;;;;;;0.30;0.30;;;;;;;15.96;100.00;99520.38;5038862;28;20047;-93
2023/07/28 00:07:07;;;;;;;0.28;0.20;;;;;;;15.96;100.00;99528.75;5055450;28;20048;-93
2023/07/28 00:09:32;;;;;;;0.00;0.00;;;;;;;15.79;100.00;99500.53;5055320;28;20127;-91
2023/07/28 00:11:59;;;;;;;0.40;0.38;;;;;;;15.94;100.00;99528.47;5041145;28;20119;-93
2023/07/28 00:14:26;;;;;;;0.15;0.15;;;;;;;15.86;100.00;99514.09;5052217;28;20032;-92
2023/07/28 00:16:56;;;;;;;0.60;0.22;;;;;;;15.77;100.00;99515.00;5053277;28;20037;-92
2023/07/28 00:19:22;;;;;;;0.60;0.60;;;;;;;15.71;100.00;99516.94;5066995;28;20047;-93
2023/07/28 00:21:48;;;;;;;5.43;0.77;;;;;;;15.53;100.00;99502.44;5043399;28;20111;-92
2023/07/28 00:24:14;;;;;;;0.28;0.28;;;;;;;15.54;100.00;99520.72;5029943;28;20052;-92
2023/07/28 00:26:40;;;;;;;0.05;0.05;;;;;;;15.41;100.00;99495.81;5044360;28;20109;-93
2023/07/28 00:29:07;;;;;;;0.68;0.60;;;;;;;15.50;100.00;99512.53;5060662;28;20475;-91
2023/07/28 00:31:34;;;;;;;0.28;0.28;;;;;;;15.56;100.00;99510.59;5048494;28;20039;-92
2023/07/28 00:34:01;;;;;;;0.00;0.00;;;;;;;15.39;100.00;99492.75;5062689;28;20028;-93
2023/07/28 00:36:26;;;;;;;0.20;0.17;;;;;;;15.38;100.00;99488.41;5052078;28;20050;-92
2023/07/28 00:38:52;;;;;;;1.55;0.75;;;;;;;15.26;100.00;99487.47;5065027;28;20438;-91
2023/07/28 00:41:17;;;;;;;0.10;0.10;;;;;;;15.39;100.00;99503.94;5066229;28;20483;-94
2023/07/28 00:43:43;;;;;;;0.30;0.30;;;;;;;15.35;100.00;99489.38;5058495;28;20036;-92
2023/07/28 00:46:10;;;;;;;0.35;0.35;;;;;;;15.19;100.00;99475.91;5055745;28;20036;-92
2023/07/28 00:48:35;;;;;;;0.40;0.30;;;;;;;15.37;100.00;99498.03;5045969;28;20078;-91
2023/07/28 00:51:01;;;;;;;2.92;1.85;;;;;;;15.39;100.00;99501.91;5043093;28;20036;-92
2023/07/28 00:53:27;;;;;;;0.00;0.00;;;;;;;15.26;100.00;99475.50;5052272;28;20529;-92
2023/07/28 00:55:53;;;;;;;0.52;0.50;;;;;;;15.29;100.00;99480.13;5054054;28;20024;-92
2023/07/28 00:58:18;;;;;;;0.73;0.73;;;;;;;15.24;100.00;99467.63;5049664;28;20072;-92
2023/07/28 01:00:51;;;;;;;0.43;0.20;;;;;;;15.33;100.00;99486.28;5047731;28;20044;-92
2023/07/28 01:03:18;;;;;;;1.20;0.38;;;;;;;15.29;100.00;99480.13;5052776;28;20046;-92
2023/07/28 01:06:06;;;;;;;0.57;0.57;;;;;;;15.24;100.00;99461.25;5074994;28;20036;-91
2023/07/28 01:08:50;;;;;;;0.10;0.10;;;;;;;15.21;100.00;99467.78;5065239;28;20151;-92
2023/07/28 01:11:16;;;;;;;0.03;0.03;;;;;;;15.10;100.00;99470.41;5061582;28;20028;-93
2023/07/28 01:13:41;;;;;;;0.22;0.22;;;;;;;15.10;100.00;99476.75;5042551;28;20480;-93
2023/07/28 01:16:08;;;;;;;0.17;0.15;;;;;;;15.12;100.00;99481.88;5062424;28;20119;-93
2023/07/28 01:18:34;;;;;;;0.68;0.40;;;;;;;15.10;100.00;99479.56;5050306;28;20044;-92
2023/07/28 01:21:03;;;;;;;0.80;0.55;;;;;;;14.96;100.00;99465.59;5052054;28;20040;-93
2023/07/28 01:23:53;;;;;;;0.40;0.40;;;;;;;15.05;100.00;99488.59;5034705;28;20032;-92
2023/07/28 01:26:45;;;;;;;0.38;0.30;;;;;;;15.07;100.00;99496.50;5050250;28;20047;-92
2023/07/28 01:29:13;;;;;;;0.20;0.20;;;;;;;14.88;100.00;99465.22;5042051;28;20070;-92
2023/07/28 01:31:42;;;;;;;0.30;0.30;;;;;;;14.86;100.00;99470.50;5047414;28;20078;-91
2023/07/28 01:34:08;;;;;;;0.10;0.10;;;;;;;14.74;100.00;99449.97;5048365;28;20037;-92
2023/07/28 01:36:33;;;;;;;4.50;0.65;;;;;;;14.79;100.00;99460.47;5037015;28;20113;-92
2023/07/28 01:38:59;;;;;;;0.30;0.22;;;;;;;14.90;100.00;99477.44;5046790;28;20036;-92
2023/07/28 01:41:24;;;;;;;0.20;0.20;;;;;;;14.67;100.00;99444.78;5055470;28;20116;-92
2023/07/28 01:43:50;;;;;;;0.20;0.20;;;;;;;14.83;100.00;99472.22;5051499;28;20501;-92
2023/07/28 01:46:15;;;;;;;1.98;1.13;;;;;;;14.73;100.00;99467.97;5052044;28;20039;-92
2023/07/28 01:48:41;;;;;;;0.43;0.43;;;;;;;14.78;100.00;99470.09;5056755;28;20090;-92
2023/07/28 01:51:06;;;;;;;1.00;0.57;;;;;;;14.78;100.00;99470.09;5062727;28;20086;-91
2023/07/28 01:53:32;;;;;;;0.17;0.17;;;;;;;14.74;100.00;99458.34;5067007;28;20451;-92
2023/07/28 01:55:57;;;;;;;0.70;0.68;;;;;;;14.59;100.00;99446.41;5049095;28;20044;-94
2023/07/28 01:58:23;;;;;;;0.10;0.10;;;;;;;14.66;100.00;99457.19;5045714;28;20036;-93
2023/07/28 02:00:49;;;;;;;0.00;0.00;;;;;;;14.75;100.00;99476.66;5050490;28;20032;-93
2023/07/28 02:03:14;;;;;;;0.25;0.25;;;;;;;14.61;100.00;99459.84;5053533;28;20102;-92
2023/07/28 02:05:40;;;;;;;0.17;0.17;;;;;;;14.67;100.00;99464.31;5033014;28;20036;-92
2023/07/28 02:08:05;;;;;;;0.15;0.08;;;;;;;14.74;100.00;99469.53;5051359;28;20386;-93
2023/07/28 02:10:31;;;;;;;0.50;0.50;;;;;;;14.66;100.00;99451.59;5053354;28;20600;-92
2023/07/28 02:12:57;;;;;;;0.43;0.43;;;;;;;14.74;100.00;99452.75;5045617;28;20528;-93
2023/07/28 02:15:22;;;;;;;0.68;0.28;;;;;;;14.56;100.00;99430.59;5058139;28;20024;-92
2023/07/28 02:17:49;;;;;;;0.08;0.08;;;;;;;14.32;100.00;99401.94;5034995;28;20028;-91
2023/07/28 02:20:15;;;;;;;0.10;0.10;;;;;;;14.30;100.00;99408.00;5036437;28;20131;-92
2023/07/28 02:22:44;;;;;;;0.63;0.63;;;;;;;14.42;100.00;99428.56;5051357;28;20028;-92
2023/07/28 02:25:10;;;;;;;0.08;0.08;;;;;;;14.57;100.00;99448.09;5052432;28;20032;-92
2023/07/28 02:27:37;;;;;;;0.43;0.43;;;;;;;14.38;100.00;99423.16;5033021;28;20081;-94
2023/07/28 02:30:03;;;;;;;0.93;0.90;;;;;;;14.56;100.00;99438.22;5042174;28;20082;-92
2023/07/28 02:32:29;;;;;;;0.35;0.25;;;;;;;14.48;100.00;99428.66;5061053;28;20115;-92
2023/07/28 02:34:56;;;;;;;0.10;0.10;;;;;;;14.48;100.00;99434.25;5051716;28;20083;-91
2023/07/28 02:37:21;;;;;;;0.43;0.43;;;;;;;14.53;100.00;99430.78;5034555;28;20056;-92
2023/07/28 02:39:47;;;;;;;0.82;0.70;;;;;;;14.59;100.00;99429.66;5045150;28;20449;-92
2023/07/28 02:42:14;;;;;;;0.50;0.50;;;;;;;14.51;100.00;99428.47;5042271;28;20082;-92
2023/07/28 02:44:40;;;;;;;0.38;0.35;;;;;;;14.48;100.00;99418.25;5067936;28;20041;-92
2023/07/28 02:47:05;;;;;;;0.10;0.10;;;;;;;14.50;100.00;99426.16;5048632;28;20031;-93
2023/07/28 02:49:31;;;;;;;0.52;0.52;;;;;;;14.45;100.00;99414.41;5050341;28;20040;-91
2023/07/28 02:51:57;;;;;;;0.65;0.65;;;;;;;14.42;100.00;99409.03;5060349;28;20035;-93
2023/07/28 02:54:24;;;;;;;0.40;0.40;;;;;;;14.51;100.00;99428.47;5043003;28;20113;-93
2023/07/28 02:56:51;;;;;;;0.20;0.20;;;;;;;14.47;100.00;99430.69;5064555;28;20023;-93
2023/07/28 02:59:17;;;;;;;0.00;0.00;;;;;;;14.43;100.00;99424.53;5064083;28;20036;-92
2023/07/28 03:01:43;;;;;;;0.85;0.43;;;;;;;14.52;100.00;99438.38;5051592;28;20430;-92
2023/07/28 03:04:09;;;;;;;0.32;0.32;;;;;;;14.55;100.00;99439.47;5053310;28;20032;-92
2023/07/28 03:06:56;;;;;;;0.17;0.17;;;;;;;14.42;100.00;99429.31;5068097;28;20043;-92
2023/07/28 03:09:22;;;;;;;0.10;0.10;;;;;;;14.43;100.00;99432.88;5036391;28;20055;-92
2023/07/28 03:11:55;;;;;;;;;;;;;;;14.48;100.00;99423.09;5070628;28;20028;-93
2023/07/28 03:14:20;;;;;;;0.55;0.45;;;;;;;14.13;100.00;99392.19;5026479;28;19916;-92
2023/07/28 03:16:46;;;;;;;0.10;0.10;;;;;;;14.39;100.00;99446.25;5042369;28;20118;-93
2023/07/28 03:19:12;;;;;;;0.25;0.25;;;;;;;14.34;100.00;99444.09;5039807;28;20032;-92
2023/07/28 03:21:37;;;;;;;0.17;0.17;;;;;;;14.33;100.00;99439.75;5037596;28;20564;-93
2023/07/28 03:24:03;;;;;;;5.90;0.38;;;;;;;14.31;100.00;99445.81;5057011;28;20048;-93
2023/07/28 03:26:29;;;;;;;0.50;0.50;;;;;;;14.16;100.00;99424.69;5041274;28;20275;-94
2023/07/28 03:28:55;;;;;;;0.52;0.17;;;;;;;14.19;100.00;99429.34;5048431;28;20262;-92
2023/07/28 03:31:20;;;;;;;0.10;0.10;;;;;;;14.21;100.00;99426.81;5040038;28;20024;-92
2023/07/28 03:33:46;;;;;;;0.00;0.00;;;;;;;14.15;100.00;99417.59;5055033;28;20127;-92
2023/07/28 03:36:12;;;;;;;0.00;0.00;;;;;;;14.11;100.00;99419.78;5049339;28;20083;-93
2023/07/28 03:38:38;;;;;;;0.25;0.25;;;;;;;14.20;100.00;99439.22;5053908;28;20033;-93
2023/07/28 03:41:06;;;;;;;0.85;0.52;;;;;;;14.34;100.00;99452.47;5052085;28;20040;-93
2023/07/28 03:43:32;;;;;;;0.80;0.80;;;;;;;14.25;100.00;99439.34;5037344;28;20035;-93
2023/07/28 03:45:58;;;;;;;0.43;0.43;;;;;;;14.13;100.00;99436.81;5050840;28;20032;-93
2023/07/28 03:48:24;;;;;;;0.43;0.43;;;;;;;14.16;100.00;99436.63;5024099;28;20064;-93
2023/07/28 03:50:49;;;;;;;0.15;0.15;;;;;;;14.16;100.00;99435.84;5055290;28;20530;-92
2023/07/28 03:53:15;;;;;;;0.98;0.95;;;;;;;14.40;100.00;99456.94;5045746;28;20036;-92
2023/07/28 03:55:40;;;;;;;0.20;0.20;;;;;;;14.37;100.00;99445.94;5046694;28;20037;-93
2023/07/28 03:58:09;;;;;;;0.17;0.17;;;;;;;14.35;100.00;99454.03;5047145;28;20074;-93
2023/07/28 04:00:34;;;;;;;1.55;0.95;;;;;;;14.19;100.00;99418.19;5040058;28;20028;-93
2023/07/28 04:03:00;;;;;;;0.30;0.30;;;;;;;14.26;100.00;99434.53;5039108;28;20035;-93
2023/07/28 04:05:26;;;;;;;0.10;0.10;;;;;;;14.38;100.00;99441.91;5036650;28;20043;-94
2023/07/28 04:07:51;;;;;;;0.52;0.43;;;;;;;14.42;100.00;99443.28;5043725;28;20036;-93
2023/07/28 04:10:17;;;;;;;0.22;0.22;;;;;;;14.33;100.00;99423.00;5034550;28;20020;-91
2023/07/28 04:12:42;;;;;;;0.10;0.10;;;;;;;14.37;100.00;99445.94;5071639;28;20056;-93
2023/07/28 04:15:08;;;;;;;0.20;0.20;;;;;;;14.33;100.00;99448.13;5045949;28;20361;-93
2023/07/28 04:17:34;;;;;;;0.20;0.20;;;;;;;14.19;100.00;99423.75;5038563;28;20043;-94
2023/07/28 04:20:00;;;;;;;0.70;0.65;;;;;;;14.20;100.00;99426.06;5057292;28;20028;-93
2023/07/28 04:22:25;;;;;;;0.30;0.30;;;;;;;14.35;100.00;99445.66;5038816;28;20047;-93
2023/07/28 04:27:01;;;;;;;0.40;0.40;;;;;;;14.46;100.00;99451.47;5096497;27;20782;-93
2023/07/28 04:29:28;;;;;;;0.10;0.10;;;;;;;14.42;100.00;99457.22;5043657;28;20570;-92
2023/07/28 04:34:38;;;;;;;0.17;0.17;;;;;;;14.26;100.00;99401.06;5064645;28;20400;-90
2023/07/28 04:37:14;;;;;;;0.10;0.10;;;;;;;14.46;100.00;99455.03;5049364;28;20029;-91
2023/07/28 04:39:55;;;;;;;0.80;0.55;;;;;;;14.52;100.00;99463.50;5050740;28;20515;-92
2023/07/28 04:42:21;;;;;;;0.40;0.40;;;;;;;14.44;100.00;99451.16;5047217;28;20029;-91
2023/07/28 04:44:47;;;;;;;1.48;0.50;;;;;;;14.44;100.00;99462.31;5076493;28;20036;-91
2023/07/28 04:47:14;;;;;;;1.13;0.95;;;;;;;14.30;100.00;99457.44;5043125;28;20560;-91
2023/07/28 04:49:41;;;;;;;0.45;0.45;;;;;;;14.34;100.00;99474.78;5047267;28;20109;-91
2023/07/28 04:52:07;;;;;;;0.30;0.30;;;;;;;14.20;100.00;99459.53;5062632;28;20492;-92
2023/07/28 04:54:51;;;;;;;0.10;0.10;;;;;;;14.37;100.00;99479.44;5062851;28;20047;-92
2023/07/28 04:57:19;;;;;;;0.28;0.28;;;;;;;14.35;100.00;99477.13;5068109;28;20032;-91
2023/07/28 04:59:45;;;;;;;0.40;0.40;;;;;;;14.11;100.00;99434.50;5046553;28;20182;-91
2023/07/28 05:02:11;;;;;;;0.45;0.40;;;;;;;14.31;100.00;99459.78;5047204;28;20043;-92
2023/07/28 05:04:37;;;;;;;4.57;1.38;;;;;;;14.30;100.00;99463.03;5046982;28;20030;-92
2023/07/28 05:07:04;;;;;;;0.17;0.17;;;;;;;14.33;100.00;99467.66;5030559;28;20408;-90
2023/07/28 05:09:30;;;;;;;0.55;0.35;;;;;;;14.46;100.00;99465.41;5043851;28;20043;-92
2023/07/28 05:11:56;;;;;;;0.00;0.00;;;;;;;14.55;100.00;99467.38;5047612;28;20037;-91
2023/07/28 05:14:22;;;;;;;0.30;0.30;;;;;;;14.67;100.00;99478.28;5047968;28;20039;-92
2023/07/28 05:16:47;;;;;;;0.38;0.38;;;;;;;14.75;100.00;99471.06;5046618;28;20194;-92
2023/07/28 05:19:40;;;;;;;0.57;0.57;;;;;;;14.89;100.00;99470.28;5046713;28;20112;-92
2023/07/28 05:22:29;;;;;;;0.75;0.52;;;;;;;14.99;100.00;99464.63;5056996;28;20126;-91
2023/07/28 05:24:55;;;;;;;0.13;0.10;;;;;;;15.03;100.00;99440.84;5046829;28;20487;-93
2023/07/28 05:27:25;;;;;;;0.40;0.40;;;;;;;15.32;100.00;99470.81;5051014;28;20048;-91
2023/07/28 05:29:51;;;;;;;0.45;0.43;;;;;;;15.42;100.00;99458.25;5060258;28;20033;-91
2023/07/28 05:32:24;;;;;;;0.20;0.20;;;;;;;15.72;100.00;99468.16;5045887;28;20039;-94
2023/07/28 05:35:09;;;;;;;1.67;0.40;;;;;;;15.99;100.00;99469.03;5047511;28;20033;-93
2023/07/28 05:37:35;;;;;;;0.35;0.35;;;;;;;16.02;100.00;99468.06;5036912;28;20515;-92
2023/07/28 05:40:01;;;;;;;0.40;0.40;;;;;;;16.14;100.00;99461.34;5031106;28;20051;-92
2023/07/28 05:42:26;;;;;;;0.38;0.38;;;;;;;16.32;100.00;99463.88;5033668;28;20500;-93
2023/07/28 05:44:54;;;;;;;0.17;0.17;;;;;;;16.41;100.00;99476.97;5031276;28;20036;-91
2023/07/28 05:47:20;;;;;;;0.63;0.57;;;;;;;16.61;100.00;99476.97;5034054;28;20187;-91
2023/07/28 05:49:46;;;;;;;0.13;0.13;;;;;;;16.86;100.00;99481.09;5045766;28;20029;-92
2023/07/28 05:52:12;;;;;;;0.52;0.52;;;;;;;17.14;100.00;99476.53;5028301;28;20285;-91
2023/07/28 05:54:38;;;;;;;0.10;0.10;;;;;;;17.30;100.00;99478.72;5040536;28;20048;-91
2023/07/28 05:57:04;;;;;;;0.50;0.32;;;;;;;17.44;100.00;99477.78;5020390;28;20064;-92
2023/07/28 05:59:33;;;;;;;0.60;0.45;;;;;;;17.36;100.00;99434.66;5038151;28;20041;-93
2023/07/28 06:02:01;;;;;;;0.10;0.10;;;;;;;17.82;100.00;99484.22;5028535;28;20067;-94
2023/07/28 06:04:47;;;;;;;1.42;0.65;;;;;;;17.91;100.00;99481.22;5057129;28;20090;-94
2023/07/28 06:07:13;;;;;;;0.60;0.60;;;;;;;18.01;100.00;99482.56;5053029;28;20136;-93
2023/07/28 06:09:41;;;;;;;0.20;0.20;;;;;;;18.17;100.00;99476.25;5053937;28;20033;-93
2023/07/28 06:12:07;;;;;;;0.00;0.00;;;;;;;18.18;100.00;99477.81;5032716;28;20051;-93
2023/07/28 06:14:33;;;;;;;0.75;0.52;;;;;;;18.38;100.00;99477.66;5038388;28;20505;-93
2023/07/28 06:17:00;;;;;;;0.63;0.63;;;;;;;18.58;100.00;99466.28;5041268;28;20036;-91
2023/07/28 06:19:32;;;;;;;0.30;0.30;;;;;;;18.29;100.00;99421.72;5077209;28;20086;-93
2023/07/28 06:21:59;;;;;;;0.32;0.32;;;;;;;18.58;100.00;99460.66;5054058;28;20056;-94
2023/07/28 06:24:29;;;;;;;1.02;0.75;;;;;;;18.74;100.00;99461.19;5039954;28;20040;-93
2023/07/28 06:26:57;;;;;;;0.32;0.30;;;;;;;18.84;100.00;99434.41;5034702;28;20141;-93
2023/07/28 06:29:23;;;;;;;0.70;0.65;;;;;;;18.99;100.00;99430.09;5053184;28;20119;-93
2023/07/28 06:31:49;;;;;;;1.13;0.47;;;;;;;19.41;100.00;99451.56;5066409;28;20460;-92
2023/07/28 06:34:15;;;;;;;0.82;0.68;;;;;;;19.35;100.00;99419.88;5033530;28;20096;-92
2023/07/28 06:36:41;;;;;;;0.47;0.38;;;;;;;19.38;100.00;99410.41;5043799;28;20056;-91
2023/07/28 06:39:10;;;;;;;1.15;0.65;;;;;;;19.46;100.00;99411.44;5042722;28;20120;-94
2023/07/28 06:41:49;;;;;;;1.33;1.20;;;;;;;19.79;100.00;99429.56;5045823;28;20493;-89
2023/07/28 06:44:15;;;;;;;0.43;0.43;;;;;;;20.03;100.00;99457.91;5033756;28;20109;-89
2023/07/28 06:46:41;;;;;;;0.85;0.50;;;;;;;20.02;100.00;99447.91;5060808;28;20446;-94
2023/07/28 06:49:07;;;;;;;1.27;1.20;;;;;;;20.20;100.00;99438.16;5036402;28;20029;-93
2023/07/28 06:51:33;;;;;;;0.82;0.82;;;;;;;20.50;100.00;99441.91;5069921;28;20032;-92
2023/07/28 06:53:59;;;;;;;0.55;0.50;;;;;;;20.76;100.00;99447.91;5039310;28;20033;-90
2023/07/28 06:56:25;;;;;;;0.82;0.80;;;;;;;20.88;100.00;99451.41;5053662;28;20082;-94
2023/07/28 06:58:51;;;;;;;0.15;0.15;;;;;;;21.16;100.00;99459.72;5053209;28;20036;-93
2023/07/28 07:01:17;;;;;;;0.50;0.50;;;;;;;21.17;100.00;99436.63;5043613;28;20075;-93
2023/07/28 07:03:44;;;;;;;0.20;0.20;;;;;;;21.19;100.00;99439.69;5036160;28;20033;-94
2023/07/28 07:06:09;;;;;;;1.13;1.13;;;;;;;21.66;99.08;99453.66;5049836;28;20037;-93
2023/07/28 07:08:38;;;;;;;0.52;0.40;;;;;;;21.82;96.59;99427.31;5053970;28;20033;-91
2023/07/28 07:11:05;;;;;;;0.68;0.68;;;;;;;21.92;93.89;99436.97;5051182;28;20049;-91
2023/07/28 07:13:31;;;;;;;0.73;0.73;;;;;;;21.88;93.11;99401.88;5070726;28;20119;-91
2023/07/28 07:15:57;;;;;;;0.30;0.30;;;;;;;21.95;92.84;99435.94;5051326;28;20713;-93
2023/07/28 07:18:23;;;;;;;0.32;0.30;;;;;;;22.26;93.80;99440.97;5054676;28;20107;-92
2023/07/28 07:20:48;;;;;;;0.30;0.30;;;;;;;22.47;89.92;99438.41;5048186;28;20043;-93
2023/07/28 07:23:14;;;;;;;0.40;0.40;;;;;;;22.54;87.40;99448.31;5055653;28;20047;-91
2023/07/28 07:25:39;;;;;;;1.05;0.57;;;;;;;22.46;87.02;99458.72;5051917;28;20102;-91
2023/07/28 07:28:06;;;;;;;0.38;0.38;;;;;;;22.25;87.22;99447.13;5053076;28;20041;-95
2023/07/28 07:30:34;;;;;;;0.40;0.40;;;;;;;22.28;88.39;99449.66;5064418;28;20037;-91
2023/07/28 07:33:00;;;;;;;0.30;0.30;;;;;;;22.30;89.71;99455.56;5057153;28;20037;-91
2023/07/28 07:35:26;;;;;;;0.40;0.40;;;;;;;22.59;88.85;99453.16;5064225;28;20062;-93
2023/07/28 07:37:51;;;;;;;1.10;0.80;;;;;;;22.93;86.42;99459.88;5061727;28;20040;-91
2023/07/28 07:40:17;;;;;;;1.55;0.98;;;;;;;22.93;84.67;99471.19;5048093;28;20033;-93
2023/07/28 07:42:45;;;;;;;0.35;0.35;;;;;;;22.60;83.78;99455.44;5068530;28;20041;-92
2023/07/28 07:45:11;;;;;;;0.82;0.82;;;;;;;22.64;83.49;99455.16;5058901;28;20040;-94
2023/07/28 07:47:38;;;;;;;0.20;0.20;;;;;;;22.87;84.75;99462.03;5040685;28;20139;-93
2023/07/28 07:50:05;;;;;;;0.52;0.50;;;;;;;23.10;83.58;99456.81;5036930;28;20052;-90
2023/07/28 07:52:31;;;;;;;0.10;0.10;;;;;;;23.33;79.13;99462.91;5052783;28;20044;-92
2023/07/28 07:54:56;;;;;;;0.82;0.70;;;;;;;23.47;78.93;99453.16;5064875;28;20031;-92
2023/07/28 07:57:22;;;;;;;0.15;0.15;;;;;;;23.81;75.20;99465.44;5061822;28;20068;-91
2023/07/28 07:59:48;;;;;;;0.13;0.13;;;;;;;24.05;72.47;99451.09;5036532;28;20044;-92
2023/07/28 08:02:13;;;;;;;0.22;0.22;;;;;;;24.08;69.71;99452.06;5054304;28;20095;-94
2023/07/28 08:04:39;;;;;;;0.22;0.22;;;;;;;24.19;69.50;99453.94;5058621;28;20028;-91
2023/07/28 08:07:05;;;;;;;0.32;0.32;;;;;;;24.55;69.16;99452.16;5053583;28;20127;-92
2023/07/28 08:09:30;;;;;;;0.30;0.30;;;;;;;24.86;66.14;99462.59;5076365;28;20492;-92
2023/07/28 08:11:56;;;;;;;0.30;0.30;;;;;;;25.00;64.59;99457.63;5053792;28;20067;-93
2023/07/28 08:14:21;;;;;;;1.15;1.05;;;;;;;25.01;63.59;99433.63;5052778;28;20032;-91
2023/07/28 08:16:47;;;;;;;0.22;0.22;;;;;;;25.31;61.31;99438.84;5054510;28;20098;-92
2023/07/28 08:19:12;;;;;;;1.58;1.15;;;;;;;25.61;62.42;99456.19;5074958;28;20059;-93
2023/07/28 08:21:38;;;;;;;0.30;0.30;;;;;;;25.89;60.12;99439.16;5071186;28;20041;-92
2023/07/28 08:24:04;;;;;;;0.38;0.38;;;;;;;26.08;58.04;99449.53;5058444;28;20071;-92
2023/07/28 08:26:30;;;;;;;0.40;0.40;;;;;;;26.29;56.05;99442.47;5053592;28;20112;-92
2023/07/28 08:28:56;;;;;;;0.32;0.32;;;;;;;26.55;54.05;99444.31;5036352;28;20064;-91
2023/07/28 08:31:21;;;;;;;0.68;0.68;;;;;;;26.68;52.58;99451.94;5055882;28;20060;-92
2023/07/28 08:33:47;;;;;;;0.25;0.25;;;;;;;26.78;50.12;99445.16;5052985;28;20036;-92
2023/07/28 08:36:12;;;;;;;0.45;0.45;;;;;;;26.85;50.44;99427.38;5049468;28;20528;-92
2023/07/28 08:38:38;;;;;;;0.20;0.20;;;;;;;27.08;48.34;99449.44;5060359;28;20064;-92
2023/07/28 08:41:05;;;;;;;1.00;0.50;;;;;;;26.85;49.36;99438.75;5054907;28;20112;-92
2023/07/28 08:43:31;;;;;;;0.30;0.30;;;;;;;27.00;49.69;99448.66;5060966;28;20041;-92
2023/07/28 08:45:57;;;;;;;0.20;0.20;;;;;;;27.06;49.51;99440.69;5055338;28;20079;-92
2023/07/28 08:48:25;;;;;;;0.20;0.20;;;;;;;27.06;49.81;99441.47;5052964;28;20060;-92
2023/07/28 08:50:52;;;;;;;0.63;0.30;;;;;;;27.22;48.93;99459.34;5052245;28;20059;-92
2023/07/28 08:53:18;;;;;;;0.40;0.40;;;;;;;27.24;50.05;99448.16;5058023;28;20569;-92
2023/07/28 08:55:44;;;;;;;0.40;0.40;;;;;;;27.10;50.26;99456.09;5052869;28;20575;-92
2023/07/28 08:58:19;;;;;;;0.32;0.32;;;;;;;27.39;51.99;99465.25;5059614;28;20025;-91
2023/07/28 09:00:48;;;;;;;1.08;0.90;;;;;;;27.32;47.65;99446.84;5040725;28;20087;-91
2023/07/28 09:03:16;;;;;;;0.38;0.25;;;;;;;27.49;48.37;99466.25;5055344;28;20475;-93
2023/07/28 09:05:48;;;;;;;3.28;0.90;;;;;;;27.40;50.36;99458.25;5034563;28;20110;-92
2023/07/28 09:08:15;;;;;;;0.55;0.55;;;;;;;27.47;49.63;99454.66;5058308;28;20047;-93
2023/07/28 09:10:51;;;;;;;0.52;0.52;;;;;;;27.44;50.37;99470.00;5054826;28;20029;-92
2023/07/28 09:13:18;;;;;;;0.28;0.28;;;;;;;27.22;50.53;99476.41;5053205;28;20037;-92
2023/07/28 09:15:44;;;;;;;0.77;0.73;;;;;;;27.31;50.53;99453.09;5060018;28;20044;-93
2023/07/28 09:18:17;;;;;;;0.30;0.30;;;;;;;27.33;50.80;99431.28;5058996;28;20072;-92
2023/07/28 09:20:43;;;;;;;1.98;1.52;;;;;;;27.83;50.70;99463.78;5043508;28;20037;-91
2023/07/28 09:23:09;;;;;;;0.30;0.30;;;;;;;27.90;50.43;99447.25;5058832;28;20112;-92
2023/07/28 09:25:37;;;;;;;0.50;0.50;;;;;;;28.09;49.51;99471.19;5060852;28;20040;-93
2023/07/28 09:28:03;;;;;;;0.30;0.30;;;;;;;28.11;49.44;99439.25;5058088;28;20041;-92
2023/07/28 09:30:44;;;;;;;0.43;0.43;;;;;;;28.48;48.11;99444.09;5054487;28;20589;-93
2023/07/28 09:33:10;;;;;;;1.40;1.05;;;;;;;28.36;48.03;99445.84;5054226;28;20033;-91
2023/07/28 09:35:47;;;;;;;0.50;0.50;;;;;;;28.37;48.04;99441.66;5059481;28;20069;-92
2023/07/28 09:38:14;;;;;;;0.40;0.40;;;;;;;28.55;48.28;99443.31;5038635;28;20396;-92
2023/07/28 09:40:40;;;;;;;2.53;1.50;;;;;;;28.81;46.41;99459.22;5042704;28;20028;-92
2023/07/28 09:43:06;;;;;;;0.68;0.68;;;;;;;28.81;45.78;99429.91;5050316;28;20400;-91
2023/07/28 09:45:32;;;;;;;1.40;0.93;;;;;;;28.42;46.68;99432.16;5021484;28;20048;-92
2023/07/28 09:48:02;;;;;;;0.70;0.70;;;;;;;28.48;48.49;99441.25;5053737;28;20033;-92
2023/07/28 09:50:29;;;;;;;1.00;0.95;;;;;;;28.69;46.19;99427.50;5058244;28;20043;-92
2023/07/28 09:52:58;;;;;;;0.47;0.47;;;;;;;28.64;46.79;99422.72;5054809;28;20037;-92
2023/07/28 09:55:24;;;;;;;0.60;0.60;;;;;;;29.09;46.58;99438.88;5057593;28;20033;-92
2023/07/28 09:57:52;;;;;;;0.43;0.43;;;;;;;29.01;46.42;99443.13;5045184;28;20021;-92
2023/07/28 10:00:19;;;;;;;0.73;0.73;;;;;;;29.04;46.95;99424.81;5036809;28;20511;-91
2023/07/28 10:02:45;;;;;;;1.42;1.33;;;;;;;29.46;46.94;99437.13;5033185;28;20107;-92
2023/07/28 10:05:10;;;;;;;0.22;0.22;;;;;;;29.48;45.27;99428.72;5049344;28;20045;-92
2023/07/28 10:07:38;;;;;;;0.40;0.40;;;;;;;29.69;44.33;99430.47;5050750;28;20025;-93
2023/07/28 10:10:10;;;;;;;0.38;0.38;;;;;;;29.37;44.67;99428.44;5033333;28;20492;-92
2023/07/28 10:12:45;;;;;;;0.30;0.30;;;;;;;29.22;45.29;99425.66;5034107;28;20353;-93
2023/07/28 10:15:18;;;;;;;1.70;1.15;;;;;;;29.24;44.88;99426.59;5049900;28;20499;-93
2023/07/28 10:17:54;;;;;;;0.65;0.65;;;;;;;29.33;44.45;99416.66;5032642;28;20067;-92
2023/07/28 10:20:38;;;;;;;0.40;0.40;;;;;;;29.21;45.72;99399.19;5032920;28;20040;-92
2023/07/28 10:23:16;;;;;;;0.60;0.60;;;;;;;29.09;48.97;99406.72;5049672;28;20266;-91
2023/07/28 10:25:43;;;;;;;1.23;0.75;;;;;;;29.33;47.81;99417.41;5049648;28;20057;-93
2023/07/28 10:28:31;;;;;;;0.47;0.43;;;;;;;29.61;46.08;99414.13;5049769;28;20095;-93
2023/07/28 10:30:58;;;;;;;0.60;0.60;;;;;;;29.59;46.59;99411.13;5065729;28;20037;-94
2023/07/28 10:33:31;;;;;;;0.47;0.45;;;;;;;29.45;45.94;99409.13;5059371;28;20053;-92
2023/07/28 10:36:09;;;;;;;;;;;;;;;29.59;46.77;99413.22;5052345;28;20037;-92
2023/07/28 10:38:36;;;;;;;0.30;0.30;;;;;;;29.71;47.20;99410.63;5049886;28;19917;-92
2023/07/28 10:41:07;;;;;;;22.45;1.52;;;;;;;29.99;45.32;99416.69;5035819;28;20032;-91
2023/07/28 10:43:33;;;;;;;0.40;0.40;;;;;;;30.05;45.34;99425.00;5053423;28;20116;-91
2023/07/28 10:46:00;;;;;;;0.43;0.43;;;;;;;30.08;44.90;99426.69;5050002;28;20136;-91
2023/07/28 10:48:25;;;;;;;0.45;0.45;;;;;;;29.95;44.82;99427.03;5059472;28;20033;-92
2023/07/28 10:50:51;;;;;;;0.40;0.40;;;;;;;29.84;45.48;99411.09;5055902;28;20086;-92
2023/07/28 10:53:17;;;;;;;0.30;0.30;;;;;;;29.80;46.93;99435.72;5055656;28;20483;-92
2023/07/28 10:55:42;;;;;;;2.60;0.95;;;;;;;30.01;46.11;99427.50;5056425;28;20033;-93
2023/07/28 10:58:08;;;;;;;0.10;0.10;;;;;;;30.10;44.83;99429.72;5059820;28;20044;-92
2023/07/28 11:00:33;;;;;;;0.55;0.55;;;;;;;30.01;45.06;99416.84;5055626;28;20029;-91
2023/07/28 11:02:59;;;;;;;1.00;0.88;;;;;;;30.03;45.43;99401.97;5050208;28;20033;-92
2023/07/28 11:05:26;;;;;;;0.28;0.28;;;;;;;30.18;46.38;99416.09;5065669;28;20029;-92
2023/07/28 11:07:54;;;;;;;0.68;0.57;;;;;;;30.59;44.03;99410.88;5067575;28;20044;-93
2023/07/28 11:10:20;;;;;;;0.40;0.40;;;;;;;30.77;43.92;99426.69;5050905;28;20059;-92
2023/07/28 11:12:48;;;;;;;0.30;0.30;;;;;;;30.36;43.27;99411.13;5067512;28;20102;-92
2023/07/28 11:15:15;;;;;;;0.35;0.35;;;;;;;30.17;44.87;99428.88;5066046;28;20586;-92
2023/07/28 11:17:43;;;;;;;0.32;0.32;;;;;;;30.32;45.83;99428.72;5066970;28;20411;-93
2023/07/28 11:20:18;;;;;;;0.57;0.55;;;;;;;30.41;44.37;99418.72;5065954;28;20017;-93
2023/07/28 11:22:44;;;;;;;0.43;0.43;;;;;;;30.60;44.88;99429.56;5050838;28;20103;-92
2023/07/28 11:25:11;;;;;;;0.25;0.22;;;;;;;30.52;44.05;99424.69;5066026;28;20135;-93
2023/07/28 11:27:37;;;;;;;0.50;0.50;;;;;;;30.42;45.31;99412.38;5067432;28;20563;-93
2023/07/28 11:30:03;;;;;;;0.82;0.82;;;;;;;30.68;45.10;99430.22;5066019;28;20039;-92
2023/07/28 11:32:31;;;;;;;0.20;0.20;;;;;;;30.59;43.59;99410.88;5064034;28;20483;-93
2023/07/28 11:35:05;;;;;;;1.63;0.82;;;;;;;30.54;41.21;99410.53;5055419;28;20021;-94
2023/07/28 11:37:33;;;;;;;0.88;0.88;;;;;;;30.60;41.91;99421.75;5063067;28;20040;-91